Time;durP1;ratioP1;P1;durP2;ratioP2;P2;SDS_P1;SDS_P2;PMS_P1;PMS_P2;Temp;Humidity;BMP_temperature;BMP_pressure;BME280_temperature;BME280_humidity;BME280_pressure;Samples;Min_cycle;Max_cycle;Signal;HPM_P1;HPM_P2
2024/01/19 00:02:14;;;;;;;0.13;0.13;;;;;;;3.01;67.41;101472.69;5072877;28;20439;-78
2024/01/19 00:04:41;;;;;;;0.20;0.20;;;;;;;2.87;68.20;101481.13;5074545;28;20043;-78
2024/01/19 00:07:07;;;;;;;0.30;0.30;;;;;;;2.84;68.83;101475.84;5074810;28;20064;-78
2024/01/19 00:09:33;;;;;;;0.28;0.28;;;;;;;2.86;68.48;101489.81;5078682;28;20028;-79
2024/01/19 00:11:59;;;;;;;0.20;0.20;;;;;;;2.78;68.32;101480.94;5084256;28;20021;-78
2024/01/19 00:14:28;;;;;;;0.20;0.20;;;;;;;2.83;68.38;101484.53;5087028;28;20040;-78
2024/01/19 00:16:54;;;;;;;0.20;0.20;;;;;;;2.77;68.05;101481.78;5086406;28;20036;-78
2024/01/19 00:19:20;;;;;;;0.17;0.17;;;;;;;2.72;68.41;101486.03;5086069;28;20092;-78
2024/01/19 00:21:47;;;;;;;0.20;0.20;;;;;;;2.70;68.46;101485.09;5079436;28;20633;-80
2024/01/19 00:24:14;;;;;;;0.20;0.20;;;;;;;2.66;68.56;101485.91;5076961;28;20029;-79
2024/01/19 00:26:40;;;;;;;0.20;0.20;;;;;;;2.53;68.47;101493.47;5076519;28;20029;-79
2024/01/19 00:29:07;;;;;;;0.20;0.20;;;;;;;2.54;68.83;101495.22;5072951;28;20036;-80
2024/01/19 00:31:34;;;;;;;0.20;0.20;;;;;;;2.49;68.70;101488.97;5075647;28;20036;-79
2024/01/19 00:34:00;;;;;;;0.20;0.20;;;;;;;2.48;68.58;101492.47;5077706;28;20031;-79
2024/01/19 00:36:26;;;;;;;0.20;0.20;;;;;;;2.31;69.32;101491.19;5077413;28;20056;-79
2024/01/19 00:38:53;;;;;;;0.20;0.20;;;;;;;2.32;68.94;101492.94;5075788;28;20031;-80
2024/01/19 00:41:20;;;;;;;0.17;0.17;;;;;;;2.32;68.70;101495.53;5075834;28;20032;-80
2024/01/19 00:43:46;;;;;;;0.30;0.30;;;;;;;2.31;68.73;101499.03;5064980;28;20029;-79
2024/01/19 00:46:12;;;;;;;0.20;0.20;;;;;;;2.26;68.59;101499.78;5065211;28;20056;-81
2024/01/19 00:48:39;;;;;;;0.20;0.20;;;;;;;2.18;68.84;101503.06;5067811;28;20056;-81
2024/01/19 00:51:06;;;;;;;0.30;0.30;;;;;;;2.11;68.94;101507.25;5066701;28;20453;-79
2024/01/19 00:53:32;;;;;;;0.50;0.50;;;;;;;2.07;69.20;101516.75;5063683;28;20029;-81
2024/01/19 00:55:58;;;;;;;0.20;0.20;;;;;;;2.06;69.13;101519.31;5075773;28;20043;-80
2024/01/19 00:58:24;;;;;;;0.20;0.20;;;;;;;2.04;68.79;101519.25;5079782;28;20123;-81
2024/01/19 01:00:51;;;;;;;0.20;0.20;;;;;;;2.02;69.13;101520.97;5077926;28;20021;-81
2024/01/19 01:03:25;;;;;;;0.20;0.20;;;;;;;2.02;69.12;101512.22;5079733;28;20043;-79
2024/01/19 01:06:00;;;;;;;0.20;0.20;;;;;;;2.00;68.96;101517.41;5083090;28;20021;-81
2024/01/19 01:08:27;;;;;;;0.17;0.17;;;;;;;1.90;69.02;101523.25;5082092;28;20055;-80
2024/01/19 01:10:54;;;;;;;0.20;0.20;;;;;;;1.83;69.09;101514.34;5081222;28;20028;-78
2024/01/19 01:13:21;;;;;;;0.17;0.17;;;;;;;1.84;68.69;101516.13;5079314;28;20060;-77
2024/01/19 01:15:48;;;;;;;0.20;0.20;;;;;;;1.81;68.87;101520.38;5076410;28;20043;-80
2024/01/19 01:18:14;;;;;;;0.20;0.20;;;;;;;1.77;68.88;101522.06;5069138;28;20029;-78
2024/01/19 01:20:41;;;;;;;0.20;0.20;;;;;;;1.78;68.82;101523.81;5076736;28;20028;-79
2024/01/19 01:23:07;;;;;;;0.10;0.10;;;;;;;1.78;68.88;101523.81;5077661;28;20033;-78
2024/01/19 01:25:33;;;;;;;0.20;0.20;;;;;;;1.74;68.89;101533.28;5081747;28;20025;-79
2024/01/19 01:27:59;;;;;;;0.20;0.20;;;;;;;1.72;69.18;101528.84;5081751;28;20166;-79
2024/01/19 01:30:26;;;;;;;0.10;0.10;;;;;;;1.72;69.12;101529.75;5075815;28;20107;-79
2024/01/19 01:32:52;;;;;;;0.20;0.20;;;;;;;1.72;69.59;101534.09;5075790;28;20068;-77
2024/01/19 01:35:18;;;;;;;0.20;0.20;;;;;;;1.73;69.04;101535.84;5078578;28;20083;-78
2024/01/19 01:37:44;;;;;;;0.15;0.15;;;;;;;1.74;69.09;101538.50;5077899;28;20025;-78
2024/01/19 01:40:11;;;;;;;0.20;0.20;;;;;;;1.75;68.81;101536.78;5078233;28;20081;-79
2024/01/19 01:42:38;;;;;;;0.20;0.20;;;;;;;1.74;68.88;101542.84;5078136;28;20020;-81
2024/01/19 01:45:05;;;;;;;0.10;0.10;;;;;;;1.74;68.91;101538.50;5069634;28;20113;-78
2024/01/19 01:47:32;;;;;;;0.40;0.40;;;;;;;1.73;68.87;101536.75;5079430;28;20514;-79
2024/01/19 01:49:59;;;;;;;0.20;0.20;;;;;;;1.70;68.89;101541.00;5078966;28;20063;-78
2024/01/19 01:52:25;;;;;;;0.20;0.20;;;;;;;1.63;69.00;101544.28;5078186;28;20032;-80
2024/01/19 01:54:53;;;;;;;0.20;0.20;;;;;;;1.62;69.33;101548.66;5079401;28;20486;-80
2024/01/19 01:57:23;;;;;;;0.10;0.10;;;;;;;1.59;69.20;101559.88;5079816;28;20039;-79
2024/01/19 01:59:50;;;;;;;0.20;0.20;;;;;;;1.60;69.47;101559.03;5075406;28;20094;-80
2024/01/19 02:02:16;;;;;;;0.20;0.20;;;;;;;1.65;68.91;101563.50;5079103;28;20115;-80
2024/01/19 02:04:42;;;;;;;0.20;0.20;;;;;;;1.70;69.01;101564.53;5079296;28;20506;-80
2024/01/19 02:07:08;;;;;;;0.20;0.20;;;;;;;1.70;69.20;101567.13;5079087;28;20399;-79
2024/01/19 02:09:35;;;;;;;0.20;0.20;;;;;;;1.74;69.10;101574.22;5079217;28;20098;-80
2024/01/19 02:12:02;;;;;;;0.20;0.20;;;;;;;1.74;69.04;101574.22;5078640;28;20102;-79
2024/01/19 02:14:28;;;;;;;0.20;0.20;;;;;;;1.76;68.97;101580.38;5077741;28;20036;-79
2024/01/19 02:16:55;;;;;;;0.20;0.20;;;;;;;1.74;68.99;101582.03;5077324;28;20024;-79
2024/01/19 02:19:21;;;;;;;0.20;0.20;;;;;;;1.72;68.81;101581.09;5077350;28;20036;-80
2024/01/19 02:21:47;;;;;;;0.20;0.20;;;;;;;1.70;68.88;101586.28;5076969;28;20487;-78
2024/01/19 02:24:15;;;;;;;0.20;0.20;;;;;;;1.66;68.98;101584.44;5076388;28;20028;-80
2024/01/19 02:26:41;;;;;;;0.20;0.20;;;;;;;1.68;68.33;101589.72;5071030;28;20488;-78
2024/01/19 02:29:08;;;;;;;0.20;0.20;;;;;;;1.63;68.69;101586.97;5073048;28;20029;-79
2024/01/19 02:31:34;;;;;;;0.20;0.20;;;;;;;1.60;68.66;101592.09;5076118;28;20502;-78
2024/01/19 02:34:00;;;;;;;0.20;0.20;;;;;;;1.61;68.68;101599.13;5077946;28;20028;-79
2024/01/19 02:36:26;;;;;;;0.20;0.20;;;;;;;1.58;68.28;101591.16;5076923;28;20077;-79
2024/01/19 02:38:53;;;;;;;0.20;0.20;;;;;;;1.57;68.18;101597.22;5076548;28;20025;-80
2024/01/19 02:41:19;;;;;;;0.20;0.20;;;;;;;1.55;68.17;101609.38;5078121;28;20048;-79
2024/01/19 02:43:45;;;;;;;0.20;0.20;;;;;;;1.51;68.13;101603.19;5069163;28;20037;-78
2024/01/19 02:46:14;;;;;;;1.00;1.00;;;;;;;1.51;67.95;101602.28;5070777;28;20033;-78
2024/01/19 02:48:41;;;;;;;0.20;0.20;;;;;;;1.49;68.03;101598.75;5076776;28;20454;-79
2024/01/19 02:51:07;;;;;;;0.20;0.20;;;;;;;1.48;67.68;101603.06;5076679;28;20114;-79
2024/01/19 02:53:33;;;;;;;0.17;0.17;;;;;;;1.45;67.82;101597.78;5074841;28;20029;-79
2024/01/19 02:56:00;;;;;;;0.20;0.20;;;;;;;1.43;67.99;101607.28;5078522;28;20495;-78
2024/01/19 02:58:26;;;;;;;0.20;0.20;;;;;;;1.43;67.87;101602.06;5071484;28;20036;-79
2024/01/19 03:00:54;;;;;;;0.20;0.20;;;;;;;1.42;67.70;101608.09;5070872;28;20032;-80
2024/01/19 03:03:20;;;;;;;0.20;0.20;;;;;;;1.42;67.55;101605.50;5081007;28;20028;-79
2024/01/19 03:05:46;;;;;;;0.20;0.20;;;;;;;1.42;67.76;101605.50;5072744;28;20035;-79
2024/01/19 03:08:13;;;;;;;0.10;0.10;;;;;;;1.45;67.41;101613.44;5073805;28;20074;-79
2024/01/19 03:10:39;;;;;;;0.15;0.15;;;;;;;1.51;67.50;101621.47;5070798;28;20035;-79
2024/01/19 03:13:05;;;;;;;0.20;0.20;;;;;;;1.45;67.46;101621.28;5067356;28;20024;-77
2024/01/19 03:15:31;;;;;;;0.20;0.20;;;;;;;1.49;67.53;101625.75;5065559;28;20075;-80
2024/01/19 03:17:57;;;;;;;0.30;0.30;;;;;;;1.53;67.32;101627.59;5070243;28;20028;-80
2024/01/19 03:20:23;;;;;;;0.20;0.20;;;;;;;1.57;67.45;101623.34;5075998;28;20062;-78
2024/01/19 03:22:50;;;;;;;0.20;0.20;;;;;;;1.56;67.31;101627.69;5071443;28;20108;-78
2024/01/19 03:25:16;;;;;;;0.20;0.20;;;;;;;1.64;67.14;101627.03;5070603;28;20028;-79
2024/01/19 03:27:42;;;;;;;0.20;0.20;;;;;;;1.65;67.01;101631.44;5074852;28;20037;-78
2024/01/19 03:30:08;;;;;;;0.20;0.20;;;;;;;1.70;67.13;101635.94;5075179;28;20119;-80
2024/01/19 03:32:34;;;;;;;0.20;0.20;;;;;;;1.70;67.20;101625.50;5074989;28;20024;-80
2024/01/19 03:35:01;;;;;;;0.20;0.20;;;;;;;1.71;67.19;101632.50;5076035;28;20032;-80
2024/01/19 03:37:27;;;;;;;0.20;0.20;;;;;;;1.75;67.34;101631.72;5076713;28;20021;-80
2024/01/19 03:39:54;;;;;;;0.20;0.20;;;;;;;1.77;67.04;101627.44;5074580;28;20494;-80
2024/01/19 03:42:20;;;;;;;0.20;0.20;;;;;;;1.76;66.93;101624.78;5075093;28;20036;-79
2024/01/19 03:44:46;;;;;;;0.20;0.20;;;;;;;1.75;67.15;101623.88;5067244;28;20056;-77
2024/01/19 03:47:12;;;;;;;0.20;0.20;;;;;;;1.72;66.76;101626.44;5072443;28;20033;-78
2024/01/19 03:49:40;;;;;;;0.20;0.20;;;;;;;1.72;67.01;101634.25;5076336;28;20107;-79
2024/01/19 03:52:07;;;;;;;0.15;0.15;;;;;;;1.78;66.79;101633.53;5074790;28;20044;-80
2024/01/19 03:54:34;;;;;;;0.30;0.30;;;;;;;1.80;66.64;101631.88;5075102;28;20036;-79
2024/01/19 03:57:03;;;;;;;0.20;0.20;;;;;;;1.85;66.88;101643.34;5073649;28;20029;-78
2024/01/19 03:59:30;;;;;;;0.20;0.20;;;;;;;1.86;66.83;101637.28;5065812;28;20036;-79
2024/01/19 04:01:56;;;;;;;0.13;0.13;;;;;;;1.86;66.99;101652.06;5074588;28;20051;-79
2024/01/19 04:04:23;;;;;;;0.10;0.10;;;;;;;1.96;66.80;101653.19;5076653;28;20024;-78
2024/01/19 04:06:52;;;;;;;0.22;0.22;;;;;;;2.00;66.70;101652.47;5075716;28;20031;-79
2024/01/19 04:09:19;;;;;;;0.20;0.20;;;;;;;2.06;67.01;101655.25;5075877;28;20584;-79
2024/01/19 04:11:45;;;;;;;0.10;0.10;;;;;;;2.03;66.87;101649.91;5074340;28;20036;-78
2024/01/19 04:14:12;;;;;;;0.20;0.20;;;;;;;2.10;66.75;101649.25;5071413;28;20434;-79
2024/01/19 04:16:39;;;;;;;0.63;0.63;;;;;;;2.12;66.99;101644.97;5075885;28;20040;-79
2024/01/19 04:19:06;;;;;;;0.20;0.20;;;;;;;2.10;66.81;101651.88;5075028;28;20028;-79
2024/01/19 04:21:32;;;;;;;0.20;0.20;;;;;;;2.22;66.97;101667.03;5074381;28;20086;-79
2024/01/19 04:23:59;;;;;;;0.20;0.20;;;;;;;2.28;66.53;101690.72;5076035;28;20035;-79
2024/01/19 04:26:27;;;;;;;0.20;0.20;;;;;;;2.35;66.69;101695.25;5074619;28;20028;-79
2024/01/19 04:28:54;;;;;;;0.20;0.20;;;;;;;2.38;66.89;101710.16;5074697;28;20220;-79
2024/01/19 04:31:21;;;;;;;0.20;0.20;;;;;;;2.44;68.11;101718.16;5073893;28;20103;-79
2024/01/19 04:33:47;;;;;;;0.20;0.20;;;;;;;2.62;68.39;101716.91;5077996;28;20048;-78
2024/01/19 04:36:13;;;;;;;0.20;0.20;;;;;;;2.78;67.97;101719.09;5077682;28;20029;-79
2024/01/19 04:38:39;;;;;;;0.22;0.22;;;;;;;2.85;67.86;101721.00;5078056;28;20029;-78
2024/01/19 04:41:05;;;;;;;0.30;0.30;;;;;;;2.90;68.58;101716.81;5077186;28;20032;-78
2024/01/19 04:43:32;;;;;;;0.20;0.20;;;;;;;3.05;68.15;101720.63;5077081;28;20036;-79
2024/01/19 04:45:58;;;;;;;0.20;0.20;;;;;;;3.07;68.46;101722.44;5075876;28;20032;-79
2024/01/19 04:48:24;;;;;;;0.20;0.20;;;;;;;3.15;68.41;101714.78;5078751;28;20021;-79
2024/01/19 04:50:50;;;;;;;0.20;0.20;;;;;;;3.15;68.25;101719.13;5078362;28;20033;-80
2024/01/19 04:53:16;;;;;;;0.20;0.20;;;;;;;3.17;67.90;101731.41;5080080;28;20124;-79
2024/01/19 04:55:43;;;;;;;0.20;0.20;;;;;;;3.14;68.09;101736.59;5076204;28;20021;-80
2024/01/19 04:58:09;;;;;;;0.20;0.20;;;;;;;3.11;68.62;101733.00;5078032;28;20029;-80
2024/01/19 05:00:35;;;;;;;0.20;0.20;;;;;;;3.07;68.29;101738.16;5070378;28;20036;-77
2024/01/19 05:03:01;;;;;;;0.20;0.20;;;;;;;3.03;68.00;101743.28;5076317;28;20089;-78
2024/01/19 05:05:27;;;;;;;0.20;0.20;;;;;;;2.99;68.14;101746.66;5078385;28;20487;-78
2024/01/19 05:07:55;;;;;;;0.20;0.20;;;;;;;2.98;68.15;101755.34;5077814;28;20476;-78
2024/01/19 05:10:21;;;;;;;0.10;0.10;;;;;;;2.95;68.40;101744.81;5073866;28;20064;-78
2024/01/19 05:12:47;;;;;;;0.20;0.20;;;;;;;2.92;68.10;101750.88;5072948;28;20029;-78
2024/01/19 05:15:13;;;;;;;0.20;0.20;;;;;;;2.88;67.98;101754.25;5071191;28;20040;-78
2024/01/19 05:17:39;;;;;;;0.20;0.20;;;;;;;2.84;67.97;101755.00;5073488;28;20032;-78
2024/01/19 05:20:06;;;;;;;0.20;0.20;;;;;;;2.77;68.47;101756.56;5076442;28;20064;-77
2024/01/19 05:22:32;;;;;;;0.20;0.20;;;;;;;2.73;68.66;101759.97;5076252;28;20154;-78
2024/01/19 05:24:58;;;;;;;0.20;0.20;;;;;;;2.70;68.36;101770.34;5077811;28;20052;-79
2024/01/19 05:27:24;;;;;;;0.10;0.10;;;;;;;2.66;68.57;101778.94;5078065;28;20029;-79
2024/01/19 05:29:50;;;;;;;0.25;0.25;;;;;;;2.64;67.88;101783.25;5073082;28;20029;-79
2024/01/19 05:32:17;;;;;;;0.20;0.20;;;;;;;2.58;68.56;101787.47;5073617;28;20872;-79
2024/01/19 05:34:44;;;;;;;0.20;0.20;;;;;;;2.55;68.41;101792.59;5078807;28;20035;-80
2024/01/19 05:37:10;;;;;;;0.20;0.20;;;;;;;2.54;68.29;101796.09;5079892;28;20035;-78
2024/01/19 05:39:36;;;;;;;0.20;0.20;;;;;;;2.53;68.50;101801.25;5072761;28;20028;-79
2024/01/19 05:42:02;;;;;;;0.20;0.20;;;;;;;2.50;68.53;101804.66;5079643;28;20449;-78
2024/01/19 05:44:29;;;;;;;0.30;0.30;;;;;;;2.44;68.51;101804.50;5071759;28;20100;-78
2024/01/19 05:46:55;;;;;;;0.20;0.20;;;;;;;2.33;69.01;101814.66;5069756;28;20097;-79
2024/01/19 05:49:21;;;;;;;0.20;0.20;;;;;;;2.30;68.60;101817.16;5077050;28;20103;-79
2024/01/19 05:51:47;;;;;;;0.20;0.20;;;;;;;2.24;68.94;101823.13;5076041;28;20568;-80
2024/01/19 05:54:13;;;;;;;0.20;0.20;;;;;;;2.19;68.56;101824.69;5076521;28;20027;-79
2024/01/19 05:56:39;;;;;;;0.20;0.20;;;;;;;2.14;68.85;101826.28;5071308;28;20024;-79
2024/01/19 05:59:06;;;;;;;0.17;0.17;;;;;;;2.12;69.09;101822.75;5075994;28;20123;-79
2024/01/19 06:01:32;;;;;;;0.20;0.20;;;;;;;2.10;69.20;101842.72;5058167;28;20068;-78
2024/01/19 06:03:58;;;;;;;0.20;0.20;;;;;;;2.07;68.86;101840.03;5076788;28;20032;-77
2024/01/19 06:06:25;;;;;;;0.52;0.40;;;;;;;2.06;69.02;101848.69;5078406;28;20029;-80
2024/01/19 06:08:51;;;;;;;0.20;0.20;;;;;;;2.03;68.84;101853.81;5076704;28;20036;-79
2024/01/19 06:11:17;;;;;;;0.20;0.20;;;;;;;2.01;69.32;101856.38;5076437;28;20047;-79
2024/01/19 06:13:45;;;;;;;0.20;0.20;;;;;;;1.99;69.36;101859.78;5076153;28;20388;-78
2024/01/19 06:16:11;;;;;;;0.20;0.20;;;;;;;1.94;69.48;101857.03;5076266;28;20035;-79
2024/01/19 06:18:38;;;;;;;0.20;0.20;;;;;;;1.87;69.55;101868.13;5074344;28;20078;-79
2024/01/19 06:21:09;;;;;;;0.20;0.20;;;;;;;1.88;69.99;101869.91;5076956;28;20052;-78
2024/01/19 06:23:38;;;;;;;0.20;0.20;;;;;;;1.89;69.98;101867.31;5077303;28;20028;-79
2024/01/19 06:26:10;;;;;;;0.20;0.20;;;;;;;1.89;70.33;101875.16;5073270;28;20475;-78
2024/01/19 06:28:36;;;;;;;0.20;0.20;;;;;;;1.85;69.94;101878.53;5064991;28;20025;-79
2024/01/19 06:31:07;;;;;;;0.20;0.20;;;;;;;1.82;70.40;101886.28;5079902;28;20042;-78
2024/01/19 06:33:33;;;;;;;0.20;0.20;;;;;;;1.70;70.45;101886.75;5086473;28;20040;-78
2024/01/19 06:35:59;;;;;;;0.20;0.20;;;;;;;1.70;70.51;101891.09;5077145;28;20059;-78
2024/01/19 06:38:26;;;;;;;0.25;0.25;;;;;;;1.66;70.74;101889.19;5079664;28;20466;-79
2024/01/19 06:40:52;;;;;;;0.40;0.40;;;;;;;1.66;70.44;101899.66;5081162;28;20033;-79
2024/01/19 06:43:18;;;;;;;0.20;0.20;;;;;;;1.66;70.34;101905.78;5076022;28;20025;-78
2024/01/19 06:45:44;;;;;;;0.20;0.20;;;;;;;1.66;70.56;101903.16;5074360;28;20029;-79
2024/01/19 06:48:11;;;;;;;0.40;0.40;;;;;;;1.63;70.41;101904.78;5071429;28;20029;-79
2024/01/19 06:50:37;;;;;;;0.20;0.20;;;;;;;1.59;70.85;101904.66;5070139;28;20566;-79
2024/01/19 06:53:06;;;;;;;0.20;0.20;;;;;;;1.65;70.57;101905.75;5073320;28;20040;-78
2024/01/19 06:55:32;;;;;;;0.28;0.28;;;;;;;1.59;70.73;101909.88;5075923;28;20122;-80
2024/01/19 06:57:58;;;;;;;0.20;0.20;;;;;;;1.60;70.21;101910.81;5074070;28;20020;-81
2024/01/19 07:00:25;;;;;;;0.20;0.20;;;;;;;1.55;70.72;101913.25;5068665;28;20078;-80
2024/01/19 07:02:52;;;;;;;0.20;0.20;;;;;;;1.57;70.11;101911.59;5072111;28;20411;-80
2024/01/19 07:05:18;;;;;;;0.38;0.38;;;;;;;1.51;70.77;101924.44;5075668;28;20376;-81
2024/01/19 07:07:44;;;;;;;0.20;0.20;;;;;;;1.50;70.50;101925.25;5067176;28;20108;-80
2024/01/19 07:10:11;;;;;;;0.20;0.20;;;;;;;1.43;70.67;101934.63;5074129;28;20020;-79
2024/01/19 07:12:37;;;;;;;0.20;0.20;;;;;;;1.43;70.41;101938.94;5074730;28;20028;-78
2024/01/19 07:15:04;;;;;;;0.10;0.10;;;;;;;1.35;70.60;101936.06;5075338;28;20280;-77
2024/01/19 07:17:30;;;;;;;0.20;0.20;;;;;;;1.32;70.78;101940.28;5083583;28;20020;-77
2024/01/19 07:19:59;;;;;;;0.20;0.20;;;;;;;1.34;70.96;101944.72;5078568;28;20039;-78
2024/01/19 07:22:27;;;;;;;0.20;0.20;;;;;;;1.31;71.10;101943.72;5076248;28;20031;-78
2024/01/19 07:24:53;;;;;;;0.20;0.20;;;;;;;1.27;70.74;101951.47;5076442;28;20036;-79
2024/01/19 07:27:19;;;;;;;0.20;0.20;;;;;;;1.26;71.02;101952.28;5076713;28;20073;-79
2024/01/19 07:29:46;;;;;;;0.20;0.20;;;;;;;1.28;70.76;101953.25;5077915;28;20028;-82
2024/01/19 07:32:12;;;;;;;0.20;0.20;;;;;;;1.26;70.56;101960.13;5068414;28;20033;-78
2024/01/19 07:34:38;;;;;;;0.20;0.20;;;;;;;1.25;70.78;101957.47;5075040;28;20119;-78
2024/01/19 07:37:04;;;;;;;1.42;1.40;;;;;;;1.23;70.21;101962.59;5073903;28;20088;-78
2024/01/19 07:39:30;;;;;;;0.20;0.20;;;;;;;1.16;70.53;101967.56;5072481;28;20032;-77
2024/01/19 07:41:57;;;;;;;0.20;0.20;;;;;;;1.12;70.69;101969.16;5073156;28;20028;-79
2024/01/19 07:44:23;;;;;;;0.10;0.10;;;;;;;1.13;70.64;101973.56;5065934;28;20035;-80
2024/01/19 07:46:49;;;;;;;0.20;0.20;;;;;;;1.09;70.64;101980.38;5074128;28;20028;-78
2024/01/19 07:49:20;;;;;;;0.15;0.15;;;;;;;1.08;70.34;101980.31;5074003;28;20047;-81
2024/01/19 07:51:48;;;;;;;0.20;0.20;;;;;;;1.07;70.43;101978.53;5073738;28;20021;-80
2024/01/19 07:54:16;;;;;;;0.20;0.20;;;;;;;1.02;70.49;101982.69;5071028;28;20119;-77
2024/01/19 07:56:42;;;;;;;0.20;0.20;;;;;;;1.03;70.59;101992.31;5072876;28;20025;-78
2024/01/19 07:59:08;;;;;;;0.20;0.20;;;;;;;1.02;70.85;101988.78;5070527;28;20403;-78
2024/01/19 08:01:34;;;;;;;0.20;0.20;;;;;;;1.02;70.63;101994.03;5068256;28;20036;-79
2024/01/19 08:04:00;;;;;;;0.20;0.20;;;;;;;1.03;70.74;102002.75;5082787;28;20028;-78
2024/01/19 08:06:27;;;;;;;0.10;0.10;;;;;;;0.98;70.82;102004.31;5080691;28;20048;-78
2024/01/19 08:08:53;;;;;;;0.20;0.20;;;;;;;1.01;70.76;101996.56;5086216;28;20024;-78
2024/01/19 08:11:19;;;;;;;0.20;0.20;;;;;;;1.03;70.88;102002.75;5090968;28;20001;-77
2024/01/19 08:13:45;;;;;;;0.20;0.20;;;;;;;0.98;71.01;102012.13;5063189;28;20053;-79
2024/01/19 08:16:11;;;;;;;0.10;0.10;;;;;;;1.01;71.25;102017.47;5083568;28;20058;-81
2024/01/19 08:18:37;;;;;;;0.10;0.10;;;;;;;1.02;71.39;102016.63;5083104;28;20036;-80
2024/01/19 08:21:04;;;;;;;0.30;0.30;;;;;;;1.13;71.29;102028.38;5086337;28;20017;-76
2024/01/19 08:23:31;;;;;;;0.22;0.22;;;;;;;1.15;71.19;102021.50;5086642;28;20056;-78
2024/01/19 08:25:57;;;;;;;0.20;0.20;;;;;;;1.14;71.76;102022.31;5082828;28;20043;-80
2024/01/19 08:28:23;;;;;;;0.20;0.20;;;;;;;1.22;71.35;102022.59;5081884;28;20392;-83
2024/01/19 08:30:49;;;;;;;0.10;0.10;;;;;;;1.26;71.18;102035.84;5078512;28;20035;-79
2024/01/19 08:33:16;;;;;;;0.20;0.20;;;;;;;1.32;71.20;102031.66;5078633;28;20102;-80
2024/01/19 08:35:42;;;;;;;0.20;0.20;;;;;;;1.36;71.15;102033.56;5079217;28;20024;-80
2024/01/19 08:38:08;;;;;;;0.20;0.20;;;;;;;1.37;71.28;102032.72;5081073;28;20439;-79
2024/01/19 08:40:34;;;;;;;0.20;0.20;;;;;;;1.41;70.99;102040.75;5081643;28;20491;-78
2024/01/19 08:43:00;;;;;;;0.20;0.20;;;;;;;1.42;71.06;102037.31;5078200;28;20036;-78
2024/01/19 08:45:28;;;;;;;0.22;0.22;;;;;;;1.47;71.21;102042.69;5078069;28;20079;-78
2024/01/19 08:47:58;;;;;;;0.20;0.20;;;;;;;1.52;71.18;102048.97;5077810;28;20078;-78
2024/01/19 08:50:30;;;;;;;0.20;0.20;;;;;;;1.59;70.76;102050.97;5077862;28;20085;-84
2024/01/19 08:52:56;;;;;;;;;;;;;;;1.86;70.53;102062.38;5077338;28;20554;-78
2024/01/19 08:55:22;;;;;;;0.30;0.30;;;;;;;1.75;71.31;102059.38;5078840;28;19927;-83
2024/01/19 08:57:49;;;;;;;0.30;0.30;;;;;;;1.81;71.27;102056.97;5079237;28;20029;-80
2024/01/19 09:00:16;;;;;;;0.20;0.20;;;;;;;1.87;71.17;102057.19;5078024;28;20426;-81
2024/01/19 09:02:42;;;;;;;2.08;1.75;;;;;;;1.97;70.99;102067.97;5077306;28;20114;-80
2024/01/19 09:05:11;;;;;;;0.45;0.45;;;;;;;2.03;71.43;102058.63;5078635;28;20020;-80
2024/01/19 09:07:37;;;;;;;0.20;0.20;;;;;;;2.10;71.26;102063.19;5077715;28;20044;-80
2024/01/19 09:10:04;;;;;;;0.20;0.20;;;;;;;2.19;71.21;102067.84;5077289;28;20032;-80
2024/01/19 09:12:30;;;;;;;0.30;0.30;;;;;;;2.30;71.78;102073.47;5074518;28;20040;-80
2024/01/19 09:14:56;;;;;;;0.10;0.10;;;;;;;2.38;71.29;102071.09;5076560;28;20055;-79
2024/01/19 09:17:22;;;;;;;0.20;0.20;;;;;;;2.42;71.65;102070.38;5078286;28;20082;-80
2024/01/19 09:19:48;;;;;;;0.20;0.20;;;;;;;2.43;71.47;102074.78;5074414;28;20029;-80
2024/01/19 09:22:15;;;;;;;0.20;0.20;;;;;;;2.38;71.89;102081.56;5076971;28;20029;-80
2024/01/19 09:24:41;;;;;;;0.20;0.20;;;;;;;2.49;71.21;102090.66;5078535;28;20097;-80
2024/01/19 09:27:07;;;;;;;0.30;0.30;;;;;;;2.48;71.23;102086.28;5074616;28;20032;-79
2024/01/19 09:29:33;;;;;;;0.20;0.20;;;;;;;2.55;71.44;102090.84;5078459;28;20062;-79
2024/01/19 09:31:59;;;;;;;0.25;0.25;;;;;;;2.52;71.73;102080.31;5077483;28;20455;-79
2024/01/19 09:34:25;;;;;;;0.20;0.20;;;;;;;2.58;72.15;102090.09;5077501;28;20025;-77
2024/01/19 09:36:51;;;;;;;0.20;0.20;;;;;;;2.68;71.90;102088.66;5077511;28;20047;-79
2024/01/19 09:39:19;;;;;;;0.20;0.20;;;;;;;2.71;71.83;102089.63;5066353;28;20077;-80
2024/01/19 09:42:02;;;;;;;0.30;0.30;;;;;;;2.90;72.17;102096.38;5062327;28;20102;-79
2024/01/19 09:44:34;;;;;;;0.20;0.20;;;;;;;2.92;72.27;102102.53;5072779;28;20131;-79
2024/01/19 09:47:21;;;;;;;0.20;0.20;;;;;;;3.07;72.01;102101.25;5077846;28;20050;-78
2024/01/19 09:52:49;;;;;;;0.20;0.20;;;;;;;3.21;71.71;102104.28;5114236;27;20391;-78
2024/01/19 09:55:16;;;;;;;0.20;0.20;;;;;;;3.10;71.63;102108.31;5101670;28;20426;-79
2024/01/19 09:57:45;;;;;;;0.20;0.20;;;;;;;3.16;71.65;102116.34;5114577;28;20058;-80
2024/01/19 10:00:17;;;;;;;0.30;0.30;;;;;;;3.15;72.09;102115.44;5109646;28;20028;-82
2024/01/19 10:02:48;;;;;;;0.28;0.28;;;;;;;3.23;71.89;102116.59;5108615;28;20467;-85
2024/01/19 10:05:16;;;;;;;0.10;0.10;;;;;;;3.35;71.35;102120.41;5105343;28;20101;-81
2024/01/19 10:07:44;;;;;;;0.20;0.20;;;;;;;3.39;71.32;102114.44;5110594;28;20523;-79
2024/01/19 10:10:11;;;;;;;0.85;0.85;;;;;;;3.48;71.33;102125.19;5112718;28;20031;-79
2024/01/19 10:12:38;;;;;;;1.38;1.27;;;;;;;3.53;71.51;102134.06;5108759;28;20537;-78
2024/01/19 10:15:10;;;;;;;0.20;0.20;;;;;;;3.63;71.22;102118.66;5113321;28;20495;-80
2024/01/19 10:17:36;;;;;;;0.20;0.20;;;;;;;3.67;71.37;102136.22;5112006;28;20051;-78
2024/01/19 10:20:03;;;;;;;0.57;0.57;;;;;;;3.76;71.25;102138.22;5112599;28;20030;-79
2024/01/19 10:22:31;;;;;;;0.20;0.20;;;;;;;3.81;71.19;102134.88;5112444;28;20617;-79
2024/01/19 10:32:52;;;;;;;0.65;0.65;;;;;;;4.21;70.59;102145.59;5122613;27;20392;-78
2024/01/19 10:35:21;;;;;;;0.17;0.17;;;;;;;4.29;70.22;102140.56;5112824;28;20055;-78
2024/01/19 10:37:48;;;;;;;0.90;0.90;;;;;;;4.37;70.27;102154.78;5112220;28;20035;-82
2024/01/19 10:40:24;;;;;;;0.28;0.28;;;;;;;4.39;69.76;102145.22;5106811;28;20042;-77
2024/01/19 10:42:54;;;;;;;0.20;0.20;;;;;;;4.41;69.43;102151.41;5119142;28;20059;-79
2024/01/19 10:45:25;;;;;;;0.20;0.20;;;;;;;4.49;69.24;102141.97;5112545;28;20387;-78
2024/01/19 10:47:57;;;;;;;0.13;0.13;;;;;;;4.52;69.27;102142.06;5111847;28;20031;-79
2024/01/19 10:50:26;;;;;;;0.20;0.20;;;;;;;4.70;69.03;102159.16;5111220;28;20036;-79
2024/01/19 10:52:55;;;;;;;0.20;0.20;;;;;;;4.72;68.93;102146.91;5108567;28;20499;-78
2024/01/19 11:00:43;;;;;;;0.20;0.20;;;;;;;4.99;68.20;102154.59;5155210;27;20381;-79
2024/01/19 11:03:09;;;;;;;0.20;0.20;;;;;;;5.08;68.23;102161.81;5153554;27;20505;-79
2024/01/19 11:05:35;;;;;;;0.20;0.20;;;;;;;5.16;68.23;102156.75;5154066;27;20039;-79
2024/01/19 11:08:02;;;;;;;0.10;0.10;;;;;;;5.22;67.94;102161.25;5138424;27;20019;-79
2024/01/19 11:10:31;;;;;;;0.10;0.10;;;;;;;5.31;68.03;102157.09;5148085;27;20023;-80
2024/01/19 11:15:50;;;;;;;0.20;0.20;;;;;;;5.46;67.52;102161.81;5113540;27;20396;-79
2024/01/19 11:18:16;;;;;;;0.20;0.20;;;;;;;5.47;67.17;102153.09;5113037;28;20063;-79
2024/01/19 11:20:43;;;;;;;0.20;0.20;;;;;;;5.50;67.21;102158.38;5107163;28;20081;-79
2024/01/19 11:23:10;;;;;;;0.10;0.10;;;;;;;5.60;66.90;102153.34;5105717;28;20028;-78
2024/01/19 11:28:39;;;;;;;0.20;0.20;;;;;;;5.85;66.59;102148.63;5072612;27;20394;-80
2024/01/19 11:33:43;;;;;;;0.20;0.20;;;;;;;5.93;66.50;102161.06;5116188;27;20387;-80
2024/01/19 11:36:10;;;;;;;0.20;0.20;;;;;;;5.97;65.84;102156.75;5109769;28;20032;-80
2024/01/19 11:44:40;;;;;;;0.10;0.10;;;;;;;6.43;65.68;102162.03;5102582;28;20398;-79
2024/01/19 11:47:07;;;;;;;0.10;0.10;;;;;;;6.45;65.60;102168.22;5100687;28;20507;-82
2024/01/19 11:58:32;;;;;;;0.17;0.17;;;;;;;6.66;60.70;102162.44;5129220;27;1187289;-81
2024/01/19 12:01:00;;;;;;;0.77;0.77;;;;;;;6.61;62.75;102158.84;5134834;27;20281;-80
2024/01/19 12:03:27;;;;;;;0.10;0.10;;;;;;;6.61;59.34;102157.09;5118553;28;20035;-80
2024/01/19 12:05:56;;;;;;;0.85;0.85;;;;;;;6.67;59.21;102158.97;5117421;28;20032;-80
2024/01/19 12:08:22;;;;;;;0.20;0.20;;;;;;;6.75;60.34;102161.72;5119797;28;20024;-80
2024/01/19 12:10:59;;;;;;;0.25;0.25;;;;;;;6.88;61.07;102179.53;5115939;28;20091;-79
2024/01/19 12:13:25;;;;;;;0.20;0.20;;;;;;;6.73;57.75;102164.34;5110446;28;20118;-79